sensor_id;sensor_type;location;lat;lon;timestamp;pressure;altitude;pressure_sealevel;temperature;humidity
64632;BME280;58358;50.936;0.246;2023-04-22T00:01:20;100194.54;;;5.65;66.96
64632;BME280;58358;50.936;0.246;2023-04-22T00:03:45;100194.77;;;5.18;68.47
64632;BME280;58358;50.936;0.246;2023-04-22T00:06:12;100190.44;;;5.66;66.71
64632;BME280;58358;50.936;0.246;2023-04-22T00:08:36;100191.45;;;5.84;66.63
64632;BME280;58358;50.936;0.246;2023-04-22T00:11:02;100194.03;;;5.22;68.66
64632;BME280;58358;50.936;0.246;2023-04-22T00:13:27;100190.57;;;4.82;69.53
64632;BME280;58358;50.936;0.246;2023-04-22T00:15:52;100189.64;;;5.57;68.69
64632;BME280;58358;50.936;0.246;2023-04-22T00:18:17;100191.31;;;3.76;73.88
64632;BME280;58358;50.936;0.246;2023-04-22T00:20:43;100190.60;;;5.45;70.42
64632;BME280;58358;50.936;0.246;2023-04-22T00:23:08;100186.49;;;5.91;67.42
64632;BME280;58358;50.936;0.246;2023-04-22T00:25:33;100186.87;;;5.14;70.26
64632;BME280;58358;50.936;0.246;2023-04-22T00:27:59;100177.59;;;5.41;71.09
64632;BME280;58358;50.936;0.246;2023-04-22T00:30:24;100174.77;;;6.44;66.23
64632;BME280;58358;50.936;0.246;2023-04-22T00:32:49;100170.92;;;6.29;66.56
64632;BME280;58358;50.936;0.246;2023-04-22T00:35:15;100167.92;;;6.17;67.54
64632;BME280;58358;50.936;0.246;2023-04-22T00:37:40;100168.02;;;6.72;64.74
64632;BME280;58358;50.936;0.246;2023-04-22T00:40:06;100166.53;;;6.64;65.38
64632;BME280;58358;50.936;0.246;2023-04-22T00:42:31;100164.28;;;4.84;68.58
64632;BME280;58358;50.936;0.246;2023-04-22T00:44:56;100160.93;;;5.46;69.72
64632;BME280;58358;50.936;0.246;2023-04-22T00:47:22;100158.89;;;6.26;65.43
64632;BME280;58358;50.936;0.246;2023-04-22T00:49:48;100159.25;;;6.56;66.00
64632;BME280;58358;50.936;0.246;2023-04-22T00:52:13;100155.34;;;6.07;66.30
64632;BME280;58358;50.936;0.246;2023-04-22T00:54:38;100154.01;;;6.68;65.18
64632;BME280;58358;50.936;0.246;2023-04-22T00:57:04;100149.64;;;6.85;65.94
64632;BME280;58358;50.936;0.246;2023-04-22T00:59:29;100144.14;;;5.58;66.29
64632;BME280;58358;50.936;0.246;2023-04-22T01:01:56;100138.82;;;6.71;65.46
64632;BME280;58358;50.936;0.246;2023-04-22T01:04:22;100142.43;;;7.06;64.15
64632;BME280;58358;50.936;0.246;2023-04-22T01:06:46;100138.12;;;6.83;65.01
64632;BME280;58358;50.936;0.246;2023-04-22T01:09:12;100132.86;;;6.41;66.24
64632;BME280;58358;50.936;0.246;2023-04-22T01:11:37;100134.08;;;6.20;67.26
64632;BME280;58358;50.936;0.246;2023-04-22T01:14:03;100132.87;;;6.80;64.66
64632;BME280;58358;50.936;0.246;2023-04-22T01:16:29;100129.26;;;6.33;65.34
64632;BME280;58358;50.936;0.246;2023-04-22T01:18:54;100125.75;;;6.81;65.12
64632;BME280;58358;50.936;0.246;2023-04-22T01:21:19;100130.37;;;6.98;64.75
64632;BME280;58358;50.936;0.246;2023-04-22T01:23:44;100127.57;;;6.45;66.79
64632;BME280;58358;50.936;0.246;2023-04-22T01:26:11;100129.27;;;3.99;74.71
64632;BME280;58358;50.936;0.246;2023-04-22T01:28:35;100127.97;;;6.60;67.83
64632;BME280;58358;50.936;0.246;2023-04-22T01:31:01;100127.20;;;6.45;66.56
64632;BME280;58358;50.936;0.246;2023-04-22T01:33:26;100126.92;;;6.57;65.83
64632;BME280;58358;50.936;0.246;2023-04-22T01:35:51;100123.65;;;5.89;67.32
64632;BME280;58358;50.936;0.246;2023-04-22T01:38:16;100123.45;;;5.57;69.72
64632;BME280;58358;50.936;0.246;2023-04-22T01:40:42;100127.52;;;6.63;66.88
64632;BME280;58358;50.936;0.246;2023-04-22T01:43:08;100127.48;;;7.34;63.90
64632;BME280;58358;50.936;0.246;2023-04-22T01:45:33;100125.78;;;6.97;65.09
64632;BME280;58358;50.936;0.246;2023-04-22T01:47:58;100122.31;;;5.58;67.63
64632;BME280;58358;50.936;0.246;2023-04-22T01:50:24;100126.04;;;6.80;66.74
64632;BME280;58358;50.936;0.246;2023-04-22T01:52:49;100122.12;;;7.59;63.61
64632;BME280;58358;50.936;0.246;2023-04-22T01:55:15;100119.69;;;7.61;62.98
64632;BME280;58358;50.936;0.246;2023-04-22T01:57:40;100117.17;;;7.35;63.06
64632;BME280;58358;50.936;0.246;2023-04-22T02:00:07;100117.53;;;7.15;63.34
64632;BME280;58358;50.936;0.246;2023-04-22T02:02:31;100113.29;;;6.90;65.75
64632;BME280;58358;50.936;0.246;2023-04-22T02:04:57;100108.79;;;7.38;63.69
64632;BME280;58358;50.936;0.246;2023-04-22T02:07:22;100107.09;;;7.11;64.43
64632;BME280;58358;50.936;0.246;2023-04-22T02:09:48;100105.76;;;7.37;63.19
64632;BME280;58358;50.936;0.246;2023-04-22T02:12:13;100100.40;;;7.27;62.99
64632;BME280;58358;50.936;0.246;2023-04-22T02:14:38;100102.11;;;7.21;62.74
64632;BME280;58358;50.936;0.246;2023-04-22T02:17:04;100099.00;;;7.15;62.88
64632;BME280;58358;50.936;0.246;2023-04-22T02:19:29;100100.03;;;6.20;65.26
64632;BME280;58358;50.936;0.246;2023-04-22T02:21:55;100097.47;;;5.57;68.25
64632;BME280;58358;50.936;0.246;2023-04-22T02:24:20;100100.44;;;7.25;63.92
64632;BME280;58358;50.936;0.246;2023-04-22T02:26:45;100100.69;;;6.38;63.94
64632;BME280;58358;50.936;0.246;2023-04-22T02:29:10;100094.32;;;6.58;65.66
64632;BME280;58358;50.936;0.246;2023-04-22T02:31:36;100087.83;;;6.41;66.12
64632;BME280;58358;50.936;0.246;2023-04-22T02:34:01;100088.02;;;6.58;65.51
64632;BME280;58358;50.936;0.246;2023-04-22T02:36:26;100085.14;;;5.36;66.35
64632;BME280;58358;50.936;0.246;2023-04-22T02:38:52;100085.12;;;6.18;68.45
64632;BME280;58358;50.936;0.246;2023-04-22T02:41:17;100088.17;;;6.87;65.63
64632;BME280;58358;50.936;0.246;2023-04-22T02:43:43;100086.82;;;6.99;64.09
64632;BME280;58358;50.936;0.246;2023-04-22T02:46:09;100081.98;;;6.09;66.02
64632;BME280;58358;50.936;0.246;2023-04-22T02:48:34;100083.56;;;5.99;68.46
64632;BME280;58358;50.936;0.246;2023-04-22T02:51:00;100086.61;;;7.05;63.86
64632;BME280;58358;50.936;0.246;2023-04-22T02:53:25;100084.86;;;7.26;62.40
64632;BME280;58358;50.936;0.246;2023-04-22T02:55:51;100087.20;;;7.38;62.88
64632;BME280;58358;50.936;0.246;2023-04-22T02:58:16;100082.65;;;6.54;64.27
64632;BME280;58358;50.936;0.246;2023-04-22T03:00:41;100081.17;;;6.74;64.37
64632;BME280;58358;50.936;0.246;2023-04-22T03:03:06;100080.31;;;6.70;64.62
64632;BME280;58358;50.936;0.246;2023-04-22T03:05:32;100081.30;;;6.87;63.35
64632;BME280;58358;50.936;0.246;2023-04-22T03:07:57;100078.86;;;6.71;63.73
64632;BME280;58358;50.936;0.246;2023-04-22T03:10:23;100076.25;;;7.09;62.55
64632;BME280;58358;50.936;0.246;2023-04-22T03:12:49;100073.05;;;4.83;67.13
64632;BME280;58358;50.936;0.246;2023-04-22T03:15:14;100070.42;;;6.13;65.79
64632;BME280;58358;50.936;0.246;2023-04-22T03:17:40;100067.71;;;6.08;64.85
64632;BME280;58358;50.936;0.246;2023-04-22T03:20:06;100071.09;;;5.95;66.86
64632;BME280;58358;50.936;0.246;2023-04-22T03:22:31;100074.52;;;6.57;63.34
64632;BME280;58358;50.936;0.246;2023-04-22T03:24:56;100070.52;;;5.62;66.07
64632;BME280;58358;50.936;0.246;2023-04-22T03:27:22;100067.54;;;5.14;68.78
64632;BME280;58358;50.936;0.246;2023-04-22T03:29:47;100060.87;;;3.86;71.33
64632;BME280;58358;50.936;0.246;2023-04-22T03:32:13;100061.44;;;5.24;71.30
64632;BME280;58358;50.936;0.246;2023-04-22T03:34:38;100064.55;;;6.08;66.93
64632;BME280;58358;50.936;0.246;2023-04-22T03:37:03;100065.53;;;5.73;66.83
64632;BME280;58358;50.936;0.246;2023-04-22T03:39:29;100061.15;;;5.95;67.58
64632;BME280;58358;50.936;0.246;2023-04-22T03:41:55;100057.04;;;5.99;67.02
64632;BME280;58358;50.936;0.246;2023-04-22T03:44:20;100053.20;;;6.05;68.55
64632;BME280;58358;50.936;0.246;2023-04-22T03:46:45;100049.90;;;3.29;74.99
64632;BME280;58358;50.936;0.246;2023-04-22T03:49:10;100044.56;;;5.88;69.42
64632;BME280;58358;50.936;0.246;2023-04-22T03:51:36;100045.60;;;5.19;70.91
64632;BME280;58358;50.936;0.246;2023-04-22T03:54:01;100042.36;;;4.89;73.37
64632;BME280;58358;50.936;0.246;2023-04-22T03:56:27;100034.93;;;6.02;67.84
64632;BME280;58358;50.936;0.246;2023-04-22T03:58:52;100033.69;;;6.15;67.33
64632;BME280;58358;50.936;0.246;2023-04-22T04:01:17;100033.43;;;6.27;65.67
64632;BME280;58358;50.936;0.246;2023-04-22T04:03:42;100030.57;;;5.91;67.90
64632;BME280;58358;50.936;0.246;2023-04-22T04:06:07;100030.16;;;6.58;64.14
64632;BME280;58358;50.936;0.246;2023-04-22T04:08:32;100032.22;;;4.17;70.86
64632;BME280;58358;50.936;0.246;2023-04-22T04:10:58;100030.21;;;5.57;68.10
64632;BME280;58358;50.936;0.246;2023-04-22T04:13:23;100027.51;;;7.21;64.14
64632;BME280;58358;50.936;0.246;2023-04-22T04:15:49;100023.60;;;7.02;63.94
64632;BME280;58358;50.936;0.246;2023-04-22T04:18:14;100020.54;;;4.73;69.40
64632;BME280;58358;50.936;0.246;2023-04-22T04:20:40;100018.68;;;5.38;70.82
64632;BME280;58358;50.936;0.246;2023-04-22T04:23:05;100013.45;;;5.42;70.60
64632;BME280;58358;50.936;0.246;2023-04-22T04:25:30;100012.21;;;3.27;78.35
64632;BME280;58358;50.936;0.246;2023-04-22T04:27:56;100012.88;;;6.05;69.60
64632;BME280;58358;50.936;0.246;2023-04-22T04:30:21;100009.02;;;4.42;72.75
64632;BME280;58358;50.936;0.246;2023-04-22T04:32:46;100007.04;;;4.81;70.86
64632;BME280;58358;50.936;0.246;2023-04-22T04:35:12;100006.48;;;4.50;72.89
64632;BME280;58358;50.936;0.246;2023-04-22T04:37:37;100003.55;;;5.71;70.04
64632;BME280;58358;50.936;0.246;2023-04-22T04:40:03;100004.63;;;5.61;68.71
64632;BME280;58358;50.936;0.246;2023-04-22T04:42:28;100002.94;;;6.12;68.09
64632;BME280;58358;50.936;0.246;2023-04-22T04:44:54;99995.64;;;5.69;69.31
64632;BME280;58358;50.936;0.246;2023-04-22T04:47:19;99994.51;;;4.50;74.07
64632;BME280;58358;50.936;0.246;2023-04-22T04:49:44;99997.08;;;6.32;69.52
64632;BME280;58358;50.936;0.246;2023-04-22T04:52:10;99997.77;;;5.84;68.13
64632;BME280;58358;50.936;0.246;2023-04-22T04:54:35;100000.51;;;6.22;67.51
64632;BME280;58358;50.936;0.246;2023-04-22T04:57:00;99994.22;;;5.30;71.07
64632;BME280;58358;50.936;0.246;2023-04-22T04:59:25;99997.00;;;6.69;66.41
64632;BME280;58358;50.936;0.246;2023-04-22T05:01:51;99998.20;;;5.83;67.82
64632;BME280;58358;50.936;0.246;2023-04-22T05:04:16;99996.92;;;6.59;67.06
64632;BME280;58358;50.936;0.246;2023-04-22T05:06:41;99995.86;;;5.79;69.75
64632;BME280;58358;50.936;0.246;2023-04-22T05:09:07;99991.24;;;6.21;67.31
64632;BME280;58358;50.936;0.246;2023-04-22T05:11:32;99983.39;;;4.83;72.60
64632;BME280;58358;50.936;0.246;2023-04-22T05:13:58;99978.53;;;6.57;66.72
64632;BME280;58358;50.936;0.246;2023-04-22T05:16:23;99974.44;;;5.69;68.21
64632;BME280;58358;50.936;0.246;2023-04-22T05:18:48;99972.48;;;6.29;68.52
64632;BME280;58358;50.936;0.246;2023-04-22T05:21:13;99970.60;;;6.39;67.49
64632;BME280;58358;50.936;0.246;2023-04-22T05:23:39;99964.54;;;5.26;71.79
64632;BME280;58358;50.936;0.246;2023-04-22T05:26:04;99956.69;;;5.48;73.35
64632;BME280;58358;50.936;0.246;2023-04-22T05:28:30;99957.32;;;5.72;71.71
64632;BME280;58358;50.936;0.246;2023-04-22T05:30:56;99956.64;;;5.68;73.01
64632;BME280;58358;50.936;0.246;2023-04-22T05:33:21;99960.75;;;6.26;70.09
64632;BME280;58358;50.936;0.246;2023-04-22T05:35:47;99960.78;;;6.48;69.43
64632;BME280;58358;50.936;0.246;2023-04-22T05:38:12;99959.40;;;6.19;70.43
64632;BME280;58358;50.936;0.246;2023-04-22T05:40:38;99959.00;;;5.37;71.47
64632;BME280;58358;50.936;0.246;2023-04-22T05:43:03;99968.46;;;5.81;72.59
64632;BME280;58358;50.936;0.246;2023-04-22T05:45:28;99966.63;;;6.14;72.11
64632;BME280;58358;50.936;0.246;2023-04-22T05:47:53;99961.70;;;7.22;68.34
64632;BME280;58358;50.936;0.246;2023-04-22T05:50:19;99970.72;;;6.61;69.47
64632;BME280;58358;50.936;0.246;2023-04-22T05:52:45;99965.99;;;7.30;68.70
64632;BME280;58358;50.936;0.246;2023-04-22T05:55:11;99971.02;;;7.28;68.27
64632;BME280;58358;50.936;0.246;2023-04-22T05:57:37;99982.32;;;7.66;69.29
64632;BME280;58358;50.936;0.246;2023-04-22T06:00:03;99990.64;;;8.57;64.33
64632;BME280;58358;50.936;0.246;2023-04-22T06:02:27;99991.05;;;9.13;61.44
64632;BME280;58358;50.936;0.246;2023-04-22T06:04:53;99993.20;;;7.82;63.90
64632;BME280;58358;50.936;0.246;2023-04-22T06:07:18;99998.12;;;8.24;63.73
64632;BME280;58358;50.936;0.246;2023-04-22T06:09:44;100008.98;;;7.38;66.58
64632;BME280;58358;50.936;0.246;2023-04-22T06:12:09;100017.41;;;8.58;65.07
64632;BME280;58358;50.936;0.246;2023-04-22T06:14:35;100013.17;;;8.28;64.14
64632;BME280;58358;50.936;0.246;2023-04-22T06:17:00;100015.55;;;8.17;65.54
64632;BME280;58358;50.936;0.246;2023-04-22T06:19:26;100018.06;;;9.25;62.97
64632;BME280;58358;50.936;0.246;2023-04-22T06:21:51;100012.76;;;7.78;66.17
64632;BME280;58358;50.936;0.246;2023-04-22T06:24:16;100009.83;;;7.98;67.86
64632;BME280;58358;50.936;0.246;2023-04-22T06:26:42;100009.55;;;9.22;64.39
64632;BME280;58358;50.936;0.246;2023-04-22T06:29:07;100005.20;;;9.40;64.17
64632;BME280;58358;50.936;0.246;2023-04-22T06:31:33;100001.62;;;7.17;72.12
64632;BME280;58358;50.936;0.246;2023-04-22T06:33:58;100004.67;;;5.89;78.58
64632;BME280;58358;50.936;0.246;2023-04-22T06:36:23;100004.52;;;5.67;79.79
64632;BME280;58358;50.936;0.246;2023-04-22T06:38:49;100001.02;;;6.94;76.69
64632;BME280;58358;50.936;0.246;2023-04-22T06:41:15;100007.64;;;5.57;79.23
64632;BME280;58358;50.936;0.246;2023-04-22T06:43:39;100012.00;;;8.26;71.59
64632;BME280;58358;50.936;0.246;2023-04-22T06:46:05;100017.42;;;7.01;74.42
64632;BME280;58358;50.936;0.246;2023-04-22T06:48:31;100023.49;;;9.06;68.72
64632;BME280;58358;50.936;0.246;2023-04-22T06:50:56;100027.44;;;9.15;67.29
64632;BME280;58358;50.936;0.246;2023-04-22T06:53:22;100024.63;;;8.42;66.62
64632;BME280;58358;50.936;0.246;2023-04-22T06:55:47;100027.78;;;8.66;70.52
64632;BME280;58358;50.936;0.246;2023-04-22T06:58:13;100027.20;;;7.76;72.57
64632;BME280;58358;50.936;0.246;2023-04-22T07:00:38;100027.11;;;7.60;72.66
64632;BME280;58358;50.936;0.246;2023-04-22T07:03:04;100024.12;;;8.30;73.35
64632;BME280;58358;50.936;0.246;2023-04-22T07:05:30;100023.02;;;8.05;73.57
64632;BME280;58358;50.936;0.246;2023-04-22T07:07:55;100022.22;;;8.24;72.40
64632;BME280;58358;50.936;0.246;2023-04-22T07:10:20;100021.01;;;8.83;70.28
64632;BME280;58358;50.936;0.246;2023-04-22T07:12:45;100021.05;;;8.16;68.97
64632;BME280;58358;50.936;0.246;2023-04-22T07:15:11;100022.56;;;8.06;68.35
64632;BME280;58358;50.936;0.246;2023-04-22T07:17:36;100022.89;;;8.17;69.73
64632;BME280;58358;50.936;0.246;2023-04-22T07:20:02;100025.06;;;6.70;73.83
64632;BME280;58358;50.936;0.246;2023-04-22T07:22:28;100025.86;;;6.44;74.31
64632;BME280;58358;50.936;0.246;2023-04-22T07:24:53;100020.80;;;7.75;74.42
64632;BME280;58358;50.936;0.246;2023-04-22T07:27:18;100017.42;;;9.49;67.17
64632;BME280;58358;50.936;0.246;2023-04-22T07:29:43;100015.57;;;8.10;70.27
64632;BME280;58358;50.936;0.246;2023-04-22T07:32:09;100018.75;;;9.32;66.71
64632;BME280;58358;50.936;0.246;2023-04-22T07:34:35;100020.48;;;8.57;70.98
64632;BME280;58358;50.936;0.246;2023-04-22T07:37:01;100019.29;;;9.41;67.90
64632;BME280;58358;50.936;0.246;2023-04-22T07:39:26;100016.27;;;10.05;65.01
64632;BME280;58358;50.936;0.246;2023-04-22T07:41:51;100018.25;;;9.00;67.36
64632;BME280;58358;50.936;0.246;2023-04-22T07:44:17;100017.16;;;9.62;66.46
64632;BME280;58358;50.936;0.246;2023-04-22T07:46:42;100013.46;;;7.99;69.85
64632;BME280;58358;50.936;0.246;2023-04-22T07:49:08;100008.13;;;9.57;63.70
64632;BME280;58358;50.936;0.246;2023-04-22T07:51:33;100009.70;;;10.18;62.31
64632;BME280;58358;50.936;0.246;2023-04-22T07:53:59;100009.80;;;9.74;62.38
64632;BME280;58358;50.936;0.246;2023-04-22T07:56:24;100007.72;;;10.34;60.67
64632;BME280;58358;50.936;0.246;2023-04-22T07:58:50;100010.08;;;10.64;60.36
64632;BME280;58358;50.936;0.246;2023-04-22T08:01:15;100005.69;;;10.34;62.14
64632;BME280;58358;50.936;0.246;2023-04-22T08:03:41;100002.78;;;9.84;65.46
64632;BME280;58358;50.936;0.246;2023-04-22T08:06:06;100000.88;;;7.77;72.07
64632;BME280;58358;50.936;0.246;2023-04-22T08:08:31;99998.62;;;7.05;73.28
64632;BME280;58358;50.936;0.246;2023-04-22T08:10:57;100001.22;;;6.82;72.88
64632;BME280;58358;50.936;0.246;2023-04-22T08:13:22;100002.94;;;8.71;69.58
64632;BME280;58358;50.936;0.246;2023-04-22T08:15:48;100006.65;;;10.24;65.84
64632;BME280;58358;50.936;0.246;2023-04-22T08:18:14;100006.61;;;10.60;62.09
64632;BME280;58358;50.936;0.246;2023-04-22T08:20:39;100003.59;;;8.91;67.56
64632;BME280;58358;50.936;0.246;2023-04-22T08:23:04;100003.69;;;10.23;65.10
64632;BME280;58358;50.936;0.246;2023-04-22T08:25:30;100005.75;;;10.72;63.93
64632;BME280;58358;50.936;0.246;2023-04-22T08:27:56;100003.99;;;10.93;62.30
64632;BME280;58358;50.936;0.246;2023-04-22T08:30:21;99997.91;;;8.99;68.97
64632;BME280;58358;50.936;0.246;2023-04-22T08:32:47;99999.33;;;10.84;63.46
64632;BME280;58358;50.936;0.246;2023-04-22T08:35:12;99994.19;;;10.60;65.47
64632;BME280;58358;50.936;0.246;2023-04-22T08:37:39;99990.90;;;11.10;65.62
64632;BME280;58358;50.936;0.246;2023-04-22T08:40:05;99987.69;;;10.77;64.28
64632;BME280;58358;50.936;0.246;2023-04-22T08:42:29;99986.93;;;11.44;63.58
64632;BME280;58358;50.936;0.246;2023-04-22T08:44:56;99981.45;;;11.70;61.62
64632;BME280;58358;50.936;0.246;2023-04-22T08:47:20;99977.69;;;12.80;58.34
64632;BME280;58358;50.936;0.246;2023-04-22T08:49:46;99976.37;;;12.25;57.80
64632;BME280;58358;50.936;0.246;2023-04-22T08:52:11;99979.22;;;12.17;58.40
64632;BME280;58358;50.936;0.246;2023-04-22T08:54:37;99980.55;;;11.79;59.13
64632;BME280;58358;50.936;0.246;2023-04-22T08:57:03;99976.87;;;11.34;59.32
64632;BME280;58358;50.936;0.246;2023-04-22T08:59:33;99977.09;;;12.23;58.71
64632;BME280;58358;50.936;0.246;2023-04-22T09:01:55;99975.47;;;10.95;59.55
64632;BME280;58358;50.936;0.246;2023-04-22T09:04:19;99976.79;;;10.78;56.38
64632;BME280;58358;50.936;0.246;2023-04-22T09:06:44;99973.84;;;11.39;57.77
64632;BME280;58358;50.936;0.246;2023-04-22T09:09:10;99973.17;;;11.63;55.25
64632;BME280;58358;50.936;0.246;2023-04-22T09:11:35;99971.54;;;11.73;53.11
64632;BME280;58358;50.936;0.246;2023-04-22T09:14:00;99971.84;;;10.83;54.80
64632;BME280;58358;50.936;0.246;2023-04-22T09:16:26;99973.82;;;10.42;56.49
64632;BME280;58358;50.936;0.246;2023-04-22T09:18:51;99969.48;;;10.89;55.33
64632;BME280;58358;50.936;0.246;2023-04-22T09:21:16;99968.91;;;9.85;55.08
64632;BME280;58358;50.936;0.246;2023-04-22T09:23:45;99959.95;;;11.43;48.07
64632;BME280;58358;50.936;0.246;2023-04-22T09:26:07;99961.51;;;12.12;44.86
64632;BME280;58358;50.936;0.246;2023-04-22T09:28:36;99959.04;;;11.39;49.36
64632;BME280;58358;50.936;0.246;2023-04-22T09:30:59;99953.06;;;11.12;53.06
64632;BME280;58358;50.936;0.246;2023-04-22T09:33:24;99956.46;;;10.35;54.75
64632;BME280;58358;50.936;0.246;2023-04-22T09:35:49;99951.51;;;10.63;51.91
64632;BME280;58358;50.936;0.246;2023-04-22T09:38:14;99951.86;;;10.45;51.36
64632;BME280;58358;50.936;0.246;2023-04-22T09:40:42;99952.14;;;10.48;49.44
64632;BME280;58358;50.936;0.246;2023-04-22T09:43:07;99951.57;;;9.95;50.41
64632;BME280;58358;50.936;0.246;2023-04-22T09:45:31;99952.15;;;9.50;53.38
64632;BME280;58358;50.936;0.246;2023-04-22T09:47:59;99952.15;;;10.83;50.53
64632;BME280;58358;50.936;0.246;2023-04-22T09:50:24;99951.13;;;10.50;50.76
64632;BME280;58358;50.936;0.246;2023-04-22T09:52:53;99956.36;;;10.17;52.32
64632;BME280;58358;50.936;0.246;2023-04-22T09:55:12;99956.32;;;11.36;50.12
64632;BME280;58358;50.936;0.246;2023-04-22T09:57:38;99958.59;;;12.21;49.81
64632;BME280;58358;50.936;0.246;2023-04-22T10:00:04;99960.96;;;12.17;47.00
64632;BME280;58358;50.936;0.246;2023-04-22T10:02:28;99964.18;;;11.11;47.64
64632;BME280;58358;50.936;0.246;2023-04-22T10:04:54;99959.88;;;11.16;46.59
64632;BME280;58358;50.936;0.246;2023-04-22T10:07:19;99963.47;;;10.68;48.13
64632;BME280;58358;50.936;0.246;2023-04-22T10:09:44;99965.55;;;11.62;43.80
64632;BME280;58358;50.936;0.246;2023-04-22T10:12:10;99968.46;;;11.38;43.46
64632;BME280;58358;50.936;0.246;2023-04-22T10:14:35;99974.73;;;12.61;42.30
64632;BME280;58358;50.936;0.246;2023-04-22T10:17:01;99970.54;;;12.85;44.00
64632;BME280;58358;50.936;0.246;2023-04-22T10:19:26;99967.36;;;12.25;45.30
64632;BME280;58358;50.936;0.246;2023-04-22T10:21:53;99965.76;;;13.05;41.85
64632;BME280;58358;50.936;0.246;2023-04-22T10:24:17;99964.75;;;13.32;40.73
64632;BME280;58358;50.936;0.246;2023-04-22T10:26:47;99962.51;;;13.30;40.53
64632;BME280;58358;50.936;0.246;2023-04-22T10:29:07;99963.21;;;12.28;37.34
64632;BME280;58358;50.936;0.246;2023-04-22T10:31:32;99961.10;;;11.57;40.96
64632;BME280;58358;50.936;0.246;2023-04-22T10:34:08;99960.45;;;13.55;38.28
64632;BME280;58358;50.936;0.246;2023-04-22T10:36:23;99959.54;;;13.52;39.27
64632;BME280;58358;50.936;0.246;2023-04-22T10:41:14;99959.99;;;12.16;42.63
64632;BME280;58358;50.936;0.246;2023-04-22T10:43:40;99958.29;;;12.33;41.84
64632;BME280;58358;50.936;0.246;2023-04-22T10:46:05;99963.95;;;12.52;41.10
64632;BME280;58358;50.936;0.246;2023-04-22T10:50:56;99967.58;;;11.23;44.51
64632;BME280;58358;50.936;0.246;2023-04-22T10:53:34;99966.04;;;12.31;41.79
64632;BME280;58358;50.936;0.246;2023-04-22T10:55:50;99970.26;;;10.16;44.58
64632;BME280;58358;50.936;0.246;2023-04-22T10:58:17;99965.51;;;12.62;41.27
64632;BME280;58358;50.936;0.246;2023-04-22T11:00:41;99958.35;;;13.88;41.30
64632;BME280;58358;50.936;0.246;2023-04-22T11:03:08;99966.42;;;13.85;45.15
64632;BME280;58358;50.936;0.246;2023-04-22T11:05:28;99965.36;;;14.08;43.62
64632;BME280;58358;50.936;0.246;2023-04-22T11:07:57;99967.11;;;12.70;46.73
64632;BME280;58358;50.936;0.246;2023-04-22T11:10:31;99969.33;;;12.94;45.87
64632;BME280;58358;50.936;0.246;2023-04-22T11:12:44;99973.76;;;12.10;42.40
64632;BME280;58358;50.936;0.246;2023-04-22T11:15:11;99971.68;;;13.51;38.45
64632;BME280;58358;50.936;0.246;2023-04-22T11:17:35;99975.28;;;13.09;37.75
64632;BME280;58358;50.936;0.246;2023-04-22T11:20:02;99977.89;;;13.22;38.44
64632;BME280;58358;50.936;0.246;2023-04-22T11:22:26;99982.86;;;12.43;40.31
64632;BME280;58358;50.936;0.246;2023-04-22T11:24:54;99986.71;;;11.95;40.59
64632;BME280;58358;50.936;0.246;2023-04-22T11:27:17;99984.47;;;12.70;39.16
64632;BME280;58358;50.936;0.246;2023-04-22T11:29:43;99985.99;;;13.26;37.55
64632;BME280;58358;50.936;0.246;2023-04-22T11:32:09;99990.89;;;13.08;38.00
64632;BME280;58358;50.936;0.246;2023-04-22T11:34:34;99991.67;;;12.44;38.31
64632;BME280;58358;50.936;0.246;2023-04-22T11:36:58;99993.60;;;12.45;37.07
64632;BME280;58358;50.936;0.246;2023-04-22T11:41:49;99993.66;;;13.41;38.40
64632;BME280;58358;50.936;0.246;2023-04-22T11:44:15;99998.55;;;12.07;40.80
64632;BME280;58358;50.936;0.246;2023-04-22T11:46:43;99997.27;;;12.79;40.47
64632;BME280;58358;50.936;0.246;2023-04-22T11:49:12;99999.08;;;11.96;43.73
64632;BME280;58358;50.936;0.246;2023-04-22T11:51:31;99998.47;;;11.87;43.87
64632;BME280;58358;50.936;0.246;2023-04-22T11:53:56;100005.19;;;12.48;42.88
64632;BME280;58358;50.936;0.246;2023-04-22T11:56:22;100005.23;;;12.47;43.11
64632;BME280;58358;50.936;0.246;2023-04-22T11:58:48;100007.41;;;12.84;43.26
64632;BME280;58358;50.936;0.246;2023-04-22T12:01:13;100008.14;;;12.31;42.55
64632;BME280;58358;50.936;0.246;2023-04-22T12:03:38;100006.51;;;12.59;43.27
64632;BME280;58358;50.936;0.246;2023-04-22T12:06:04;100012.58;;;13.22;42.42
64632;BME280;58358;50.936;0.246;2023-04-22T12:08:30;100012.40;;;12.66;43.17
64632;BME280;58358;50.936;0.246;2023-04-22T12:10:56;100014.26;;;12.02;43.72
64632;BME280;58358;50.936;0.246;2023-04-22T12:13:26;100011.91;;;12.69;43.05
64632;BME280;58358;50.936;0.246;2023-04-22T12:15:45;100013.26;;;11.86;43.90
64632;BME280;58358;50.936;0.246;2023-04-22T12:18:10;100016.74;;;11.51;44.76
64632;BME280;58358;50.936;0.246;2023-04-22T12:20:36;100019.07;;;11.50;45.12
64632;BME280;58358;50.936;0.246;2023-04-22T12:23:01;100018.15;;;11.52;43.65
64632;BME280;58358;50.936;0.246;2023-04-22T12:25:32;100014.00;;;11.47;43.45
64632;BME280;58358;50.936;0.246;2023-04-22T12:27:52;100013.38;;;12.55;42.98
64632;BME280;58358;50.936;0.246;2023-04-22T12:30:16;100015.59;;;11.89;42.90
64632;BME280;58358;50.936;0.246;2023-04-22T12:32:42;100023.20;;;12.97;41.45
64632;BME280;58358;50.936;0.246;2023-04-22T12:35:07;100023.61;;;12.33;42.92
64632;BME280;58358;50.936;0.246;2023-04-22T12:37:33;100023.21;;;13.71;40.67
64632;BME280;58358;50.936;0.246;2023-04-22T12:39:58;100030.08;;;11.48;44.03
64632;BME280;58358;50.936;0.246;2023-04-22T12:42:24;100034.76;;;11.10;44.36
64632;BME280;58358;50.936;0.246;2023-04-22T12:44:49;100043.22;;;11.11;43.22
64632;BME280;58358;50.936;0.246;2023-04-22T12:47:15;100043.41;;;10.71;43.65
64632;BME280;58358;50.936;0.246;2023-04-22T12:49:41;100046.48;;;10.26;45.63
64632;BME280;58358;50.936;0.246;2023-04-22T12:52:06;100048.74;;;12.10;42.83
64632;BME280;58358;50.936;0.246;2023-04-22T12:54:31;100056.15;;;10.53;45.74
64632;BME280;58358;50.936;0.246;2023-04-22T12:56:57;100058.29;;;10.84;46.37